Flight Track Log - Related Links

Times and Time Zones

All times are in EDT time to prevent confusion due to time zone crossing. See the MAS2524 flight status page for this flight to view local times or setup timezone preferences in your user account.

Time Position Orientation Groundspeed Altitude Reporting Facility
EDT Latitude Longitude Course Direction KTS MPH feet Rate Location/Type
Mon 09:40:27 AM 2.8320 101.6670 327° Northwest 199 229 2,000  Level FlightAware ADS-B
Mon 09:40:57 AM 2.8600 101.6560 339° North 235 270 3,400 2,836 Climbing FlightAware ADS-B
Mon 09:41:22 AM 2.8840 101.6730 35° Northeast 243 280 4,600 2,280 Climbing FlightAware ADS-B
Mon 09:41:47 AM 2.8910 101.6920 70° East 247 284 5,300 840 Climbing FlightAware ADS-B
Mon 09:42:12 AM 2.9010 101.7190 70° East 247 284 5,300 2,400 Level FlightAware ADS-B
Mon 09:42:37 AM 2.9170 101.7560 67° East 279 321 7,300 3,840 Climbing FlightAware ADS-B
Mon 09:43:02 AM 2.9310 101.7870 66° East 280 322 8,500 2,400 Climbing FlightAware ADS-B
Mon 09:43:32 AM 2.9430 101.8180 69° East 288 331 9,500 2,571 Climbing FlightAware ADS-B
Mon 09:44:12 AM 2.9650 101.8700 67° East 291 335 11,500 3,000 Climbing FlightAware ADS-B
Mon 09:44:52 AM 2.9850 101.9190 68° East 291 335 13,500 2,824 Climbing FlightAware ADS-B
Mon 09:45:37 AM 3.0080 101.9760 68° East 301 346 15,500 2,340 Climbing FlightAware ADS-B
Mon 09:46:32 AM 3.0390 102.0510 68° East 335 386 17,400 1,667 Climbing FlightAware ADS-B
Mon 09:47:07 AM 3.0650 102.1130 67° East 376 433 18,000 424 Climbing FlightAware ADS-B
Mon 09:47:57 AM 3.0960 102.1890 68° East 378 435 18,000  Level FlightAware ADS-B
Mon 09:48:37 AM 3.1210 102.2490 67° East 374 430 18,000 75 Level FlightAware ADS-B
Mon 09:49:17 AM 3.1480 102.3150 68° East 374 430 18,100 975 Climbing FlightAware ADS-B
Mon 09:49:57 AM 3.1820 102.3780 62° Northeast 392 451 19,300 2,047 Climbing FlightAware ADS-B
Mon 09:50:42 AM 3.2300 102.4460 55° Northeast 403 464 21,000 2,118 Climbing FlightAware ADS-B
Mon 09:51:22 AM 3.2630 102.5160 65° Northeast 409 471 22,300 1,560 Climbing FlightAware ADS-B
Mon 09:52:22 AM 3.2780 102.6270 82° East 430 495 23,600 1,260 Climbing FlightAware ADS-B
Mon 09:53:02 AM 3.2890 102.7110 83° East 441 507 24,400 1,059 Climbing FlightAware ADS-B
Mon 09:53:47 AM 3.3010 102.8030 83° East 428 493 25,100 867 Climbing FlightAware ADS-B
Mon 09:54:32 AM 3.3120 102.8870 83° East 445 512 25,700 825 Climbing FlightAware ADS-B
Mon 09:55:07 AM 3.3220 102.9580 82° East 443 510 26,200 400 Climbing FlightAware ADS-B
Mon 09:55:47 AM 3.3320 103.0270 82° East 443 510 26,200 1,867 Level FlightAware ADS-B
Mon 09:56:37 AM 3.3480 103.1540 83° East 454 522 29,000 1,680 Climbing FlightAware ADS-B
Mon 09:57:27 AM 3.3610 103.2530 83° East 462 532 29,000  Level FlightAware ADS-B
Mon 09:58:07 AM 3.3710 103.3260 82° East 462 532 29,000  Level FlightAware ADS-B
Mon 09:58:57 AM 3.3840 103.4160 82° East 462 532 29,000  Level FlightAware ADS-B
Mon 09:59:37 AM 3.3940 103.4880 82° East 462 532 29,000  Level FlightAware ADS-B
Mon 09:59:52 AM 3.3460 103.5560 125° Southeast 466 536 29,000  Level FlightAware ADS-B
Mon 10:00:32 AM 3.3300 103.6310 102° East 467 537 29,000  Level FlightAware ADS-B
Mon 10:01:12 AM 3.3140 103.7160 101° East 467 537 29,000  Level FlightAware ADS-B
Mon 10:01:57 AM 3.2970 103.8020 101° East 467 537 29,000  Level FlightAware ADS-B
Mon 10:02:42 AM 3.2520 103.9160 112° Southeast 473 544 29,000  Level FlightAware ADS-B
Mon 10:03:22 AM 3.2250 103.9940 109° East 467 537 29,000  Level FlightAware ADS-B
Mon 10:03:57 AM 3.2110 104.0620 102° East 467 537 29,000  Level FlightAware ADS-B
Mon 10:04:47 AM 3.1710 104.1910 107° East 484 557 29,000  Level FlightAware ADS-B
Mon 10:05:22 AM 3.1490 104.2700 106° East 486 559 29,000  Level FlightAware ADS-B
Mon 10:06:12 AM 3.1190 104.3780 106° East 487 560 29,000 267 Level FlightAware ADS-B
Mon 10:06:52 AM 3.0960 104.4640 105° East 480 552 29,400 1,125 Climbing FlightAware ADS-B
Mon 10:07:32 AM 3.0720 104.5490 106° East 475 547 30,500 1,553 Climbing FlightAware ADS-B
Mon 10:08:17 AM 3.0470 104.6430 105° East 475 547 31,600 1,341 Climbing FlightAware ADS-B
Mon 10:08:57 AM 3.0230 104.7270 106° East 477 549 32,400 988 Climbing FlightAware ADS-B
Mon 10:09:42 AM 2.9980 104.8200 105° East 475 547 33,000 424 Climbing FlightAware ADS-B
Mon 10:10:22 AM 2.9730 104.9090 106° East 475 547 33,000  Level FlightAware ADS-B
Mon 10:11:02 AM 2.9490 104.9950 106° East 477 549 33,000  Level FlightAware ADS-B
Mon 10:11:47 AM 2.9240 105.0870 105° East 478 550 33,000  Level FlightAware ADS-B
Mon 10:12:27 AM 2.9000 105.1730 106° East 479 551 33,000  Level FlightAware ADS-B
Mon 10:13:12 AM 2.8730 105.2700 106° East 479 551 33,000  Level FlightAware ADS-B
Mon 10:13:52 AM 2.8520 105.3510 105° East 479 551 33,000  Level FlightAware ADS-B
Mon 10:14:32 AM 2.8320 105.4230 106° East 479 551 33,000  Level FlightAware ADS-B
Mon 10:15:12 AM 2.8130 105.4960 105° East 479 551 33,000  Level FlightAware ADS-B
Mon 10:15:52 AM 2.7930 105.5690 105° East 479 551 33,000  Level FlightAware ADS-B
Mon 10:16:32 AM 2.7740 105.6420 105° East 479 551 33,000  Level FlightAware ADS-B
Mon 10:17:22 AM 2.7490 105.7330 105° East 479 551 33,000  Level FlightAware ADS-B
Mon 10:18:02 AM 2.7300 105.8060 105° East 479 551 33,000  Level FlightAware ADS-B
Mon 10:18:42 AM 2.7100 105.8790 105° East 479 551 33,000  Level FlightAware ADS-B
Mon 10:19:27 AM 2.6560 106.0620 106° East 475 547 33,000  Level FlightAware ADS-B
Mon 10:20:07 AM 2.6310 106.1510 106° East 476 548 33,000  Level FlightAware ADS-B
Mon 10:20:52 AM 2.6040 106.2470 106° East 477 549 33,000  Level FlightAware ADS-B
Mon 10:21:32 AM 2.5800 106.3340 105° East 478 550 33,000  Level FlightAware ADS-B
Mon 10:22:17 AM 2.5550 106.4260 105° East 477 549 33,000  Level FlightAware ADS-B
Mon 10:22:57 AM 2.5310 106.5120 106° East 478 550 33,000  Level FlightAware ADS-B
Mon 10:23:37 AM 2.5070 106.5960 106° East 479 551 33,000  Level FlightAware ADS-B
Mon 10:24:17 AM 2.4840 106.6820 105° East 478 550 33,000  Level FlightAware ADS-B
Mon 10:25:02 AM 2.4610 106.7670 105° East 478 550 33,000  Level FlightAware ADS-B
Mon 10:25:42 AM 2.4420 106.8390 105° East 478 550 33,000  Level FlightAware ADS-B
Mon 10:26:22 AM 2.4220 106.9120 105° East 478 550 33,000  Level FlightAware ADS-B
Mon 10:27:02 AM 2.4030 106.9850 105° East 478 550 33,000  Level FlightAware ADS-B
Mon 10:27:52 AM 2.3780 107.0760 105° East 478 550 33,000  Level FlightAware ADS-B
Mon 10:28:32 AM 2.3590 107.1480 105° East 478 550 33,000  Level FlightAware ADS-B
Mon 10:29:12 AM 2.3390 107.2210 105° East 478 550 33,000  Level FlightAware ADS-B
Mon 10:29:52 AM 2.3200 107.2940 105° East 478 550 33,000  Level FlightAware ADS-B
Mon 10:30:32 AM 2.3010 107.3660 105° East 478 550 33,000  Level FlightAware ADS-B
Mon 10:31:22 AM 2.2460 107.5870 104° East 483 556 33,000  Level FlightAware ADS-B
Mon 10:31:57 AM 2.2280 107.6570 104° East 483 556 33,000  Level FlightAware ADS-B
Mon 10:32:37 AM 2.1920 107.7420 113° Southeast 481 554 33,000  Level FlightAware ADS-B
Mon 10:33:22 AM 2.1620 107.8300 109° East 481 554 33,000  Level FlightAware ADS-B
Mon 10:34:02 AM 2.1370 107.9010 109° East 481 554 33,000  Level FlightAware ADS-B
Mon 10:34:52 AM 2.1060 107.9910 109° East 481 554 33,000  Level FlightAware ADS-B
Mon 10:35:32 AM 2.0820 108.0620 109° East 481 554 33,000  Level FlightAware ADS-B
Mon 10:36:12 AM 2.0570 108.1340 109° East 481 554 33,000  Level FlightAware ADS-B
Mon 10:36:52 AM 2.0320 108.2050 109° East 481 554 33,000  Level FlightAware ADS-B
Mon 10:37:32 AM 2.0080 108.2770 108° East 481 554 33,000  Level FlightAware ADS-B
Mon 10:38:12 AM 1.9830 108.3480 109° East 481 554 33,000  Level FlightAware ADS-B
Mon 10:39:02 AM 1.9520 108.4380 109° East 481 554 33,000  Level FlightAware ADS-B
Mon 10:39:37 AM 1.9980 108.6540 78° East 476 548 33,000  Level FlightAware ADS-B
Mon 10:40:27 AM 1.9780 108.7660 100° East 478 550 33,000  Level FlightAware ADS-B
Mon 10:41:07 AM 1.9630 108.8510 100° East 478 550 33,000  Level FlightAware ADS-B
Mon 10:41:52 AM 1.9460 108.9490 100° East 478 550 33,000  Level FlightAware ADS-B
Mon 10:42:32 AM 1.9300 109.0370 100° East 479 551 33,000  Level FlightAware ADS-B
Mon 10:43:12 AM 1.9170 109.1240 99° East 480 552 33,000 -71 Level FlightAware ADS-B
Mon 10:43:57 AM 1.9010 109.2210 99° East 481 554 32,900 -1,341 Descending FlightAware ADS-B
Mon 10:44:37 AM 1.8860 109.3080 100° East 485 558 31,100 -3,035 Descending FlightAware ADS-B
Mon 10:45:22 AM 1.8680 109.4100 100° East 489 563 28,600 -3,388 Descending FlightAware ADS-B
Mon 10:46:02 AM 1.8520 109.5000 100° East 490 564 26,300 -3,375 Descending FlightAware ADS-B
Mon 10:46:42 AM 1.8360 109.5880 100° East 477 549 24,100 -2,824 Descending FlightAware ADS-B
Mon 10:47:27 AM 1.8200 109.6800 100° East 452 520 22,300 -2,541 Descending FlightAware ADS-B
Mon 10:48:07 AM 1.8060 109.7610 100° East 440 506 20,500 -2,682 Descending FlightAware ADS-B
Mon 10:48:52 AM 1.7900 109.8510 100° East 422 486 18,500 -2,612 Descending FlightAware ADS-B
Mon 10:49:32 AM 1.7770 109.9260 100° East 408 470 16,800 -2,400 Descending FlightAware ADS-B
Mon 10:50:17 AM 1.7630 110.0060 100° East 393 452 15,100 -2,329 Descending FlightAware ADS-B
Mon 10:50:57 AM 1.7500 110.0770 100° East 383 441 13,500 -2,400 Descending FlightAware ADS-B
Mon 10:51:37 AM 1.7380 110.1460 100° East 378 435 11,900 -2,682 Descending FlightAware ADS-B
Mon 10:52:22 AM 1.7190 110.2230 104° East 372 428 9,700 -2,914 Descending FlightAware ADS-B
Mon 10:52:47 AM 1.7080 110.2640 105° East 368 423 8,500 -2,836 Descending FlightAware ADS-B
Mon 10:53:17 AM 1.6940 110.3130 106° East 364 419 7,100 -2,836 Descending FlightAware ADS-B
Mon 10:53:42 AM 1.6830 110.3540 105° East 361 415 5,900 -2,700 Descending FlightAware ADS-B
Mon 10:53:57 AM 1.6770 110.3760 105° East 359 413 5,300 -1,200 Descending FlightAware ADS-B
Mon 10:54:27 AM 1.6650 110.4230 104° East 324 373 5,000 -982 Descending FlightAware ADS-B
Mon 10:54:52 AM 1.6550 110.4590 106° East 302 348 4,400 -1,418 Descending FlightAware ADS-B
Mon 10:55:22 AM 1.6390 110.4940 115° Southeast 282 325 3,700 -1,350 Descending FlightAware ADS-B
Mon 10:55:32 AM 1.6280 110.5020 144° Southeast 275 316 3,500 -960 Descending FlightAware ADS-B
Mon 10:55:47 AM 1.6110 110.5080 161° South 263 303 3,300 -750 Descending FlightAware ADS-B
Mon 10:56:12 AM 1.5830 110.5160 164° South 246 283 3,000 -600 Descending FlightAware ADS-B
Mon 10:56:47 AM 1.5500 110.5040 200° South 213 245 2,700 -667 Descending FlightAware ADS-B
Mon 10:56:57 AM 1.5440 110.4960 233° Southwest 201 231 2,500 -750 Descending FlightAware ADS-B
Mon 10:57:27 AM 1.5350 110.4720 249° West 179 206 2,200 -700 Descending FlightAware ADS-B
Mon 10:57:57 AM 1.5260 110.4500 248° West 163 188 1,800 -750 Descending FlightAware ADS-B
Mon 10:58:07 AM 1.5230 110.4430 247° West 160 184 1,700 -750 Descending FlightAware ADS-B
Mon 10:58:37 AM 1.5150 110.4220 249° West 151 174 1,300 -800 Descending FlightAware ADS-B
Mon 10:59:07 AM 1.5070 110.4030 247° West 147 169 900 -764 Descending FlightAware ADS-B
Mon 10:59:32 AM 1.5010 110.3870 249° West 146 168 600 -764 Descending FlightAware ADS-B
Mon 11:00:02 AM 1.4930 110.3680 247° West 151 174 200 -800 Descending FlightAware ADS-B

Login

Don't have an account? Register now (free) for customized features, flight alerts, and more!